createdAt,value
2018-05-09T00:02:15.059Z,18.90
2018-05-09T00:04:44.848Z,18.90
2018-05-09T00:07:17.451Z,18.90
2018-05-09T00:09:47.060Z,18.90
2018-05-09T00:12:19.502Z,18.90
2018-05-09T00:14:49.642Z,18.90
2018-05-09T00:17:21.938Z,18.90
2018-05-09T00:19:50.926Z,18.90
2018-05-09T00:22:23.618Z,18.90
2018-05-09T00:24:52.790Z,18.90
2018-05-09T00:27:30.191Z,18.90
2018-05-09T00:29:58.993Z,18.90
2018-05-09T00:32:28.024Z,18.80
2018-05-09T00:34:57.045Z,18.80
2018-05-09T00:37:29.981Z,18.80
2018-05-09T00:39:59.559Z,18.80
2018-05-09T00:42:35.780Z,18.70
2018-05-09T00:45:05.057Z,18.70
2018-05-09T00:47:34.937Z,18.60
2018-05-09T00:50:04.760Z,18.60
2018-05-09T00:52:38.177Z,18.40
2018-05-09T00:55:08.046Z,18.40
2018-05-09T00:57:40.462Z,18.40
2018-05-09T01:00:09.734Z,18.40
2018-05-09T01:02:42.079Z,18.40
2018-05-09T01:05:10.935Z,18.30
2018-05-09T01:07:49.379Z,18.30
2018-05-09T01:10:18.639Z,18.20
2018-05-09T01:12:48.332Z,18.20
2018-05-09T01:15:17.384Z,18.20
2018-05-09T01:17:53.544Z,18.20
2018-05-09T01:20:22.346Z,18.20
2018-05-09T01:22:52.978Z,18.10
2018-05-09T01:25:21.912Z,18.10
2018-05-09T01:27:55.566Z,18.10
2018-05-09T01:30:24.530Z,18.10
2018-05-09T01:33:01.376Z,18.10
2018-05-09T01:35:30.775Z,18.00
2018-05-09T01:38:00.958Z,18.00
2018-05-09T01:40:29.691Z,18.00
2018-05-09T01:43:06.520Z,18.00
2018-05-09T01:45:36.188Z,18.00
2018-05-09T01:48:06.162Z,18.00
2018-05-09T01:50:36.787Z,18.00
2018-05-09T01:53:09.139Z,17.90
2018-05-09T01:55:37.947Z,18.00
2018-05-09T01:58:13.645Z,18.00
2018-05-09T02:00:42.373Z,17.90
2018-05-09T02:03:14.756Z,17.90
2018-05-09T02:05:43.530Z,17.90
2018-05-09T02:08:16.144Z,17.80
2018-05-09T02:10:46.277Z,17.80
2018-05-09T02:13:19.509Z,17.70
2018-05-09T02:15:48.229Z,17.70
2018-05-09T02:18:20.565Z,17.70
2018-05-09T02:20:49.464Z,17.70
2018-05-09T02:23:25.545Z,17.70
2018-05-09T02:25:55.291Z,17.50
2018-05-09T02:28:25.058Z,17.50
2018-05-09T02:30:53.925Z,17.50
2018-05-09T02:33:27.705Z,17.50
2018-05-09T02:35:56.409Z,17.50
2018-05-09T02:38:29.465Z,17.40
2018-05-09T02:40:58.596Z,17.30
2018-05-09T02:43:34.460Z,17.40
2018-05-09T02:46:03.558Z,17.30
2018-05-09T02:48:34.275Z,17.20
2018-05-09T02:51:03.051Z,17.20
2018-05-09T02:53:39.775Z,17.30
2018-05-09T02:56:08.597Z,17.20
2018-05-09T02:58:38.931Z,17.20
2018-05-09T03:01:08.289Z,17.20
2018-05-09T03:03:41.625Z,17.10
2018-05-09T03:06:10.334Z,17.00
2018-05-09T03:08:46.766Z,17.00
2018-05-09T03:11:15.692Z,17.00
2018-05-09T03:13:46.371Z,16.90
2018-05-09T03:16:16.231Z,16.80
2018-05-09T03:18:48.934Z,16.70
2018-05-09T03:21:17.646Z,16.60
2018-05-09T03:23:51.724Z,16.50
2018-05-09T03:26:20.544Z,16.50
2018-05-09T03:28:57.284Z,16.50
2018-05-09T03:31:27.387Z,16.40
2018-05-09T03:33:57.125Z,16.30
2018-05-09T03:36:25.858Z,16.30
2018-05-09T03:39:02.978Z,16.30
2018-05-09T03:41:31.771Z,16.30
2018-05-09T03:44:02.684Z,16.30
2018-05-09T03:46:31.915Z,16.30
2018-05-09T03:49:08.587Z,16.20
2018-05-09T03:51:37.848Z,16.20
2018-05-09T03:54:07.884Z,16.20
2018-05-09T03:56:36.804Z,16.10
2018-05-09T03:59:10.526Z,16.10
2018-05-09T04:01:49.228Z,16.10
2018-05-09T04:05:26.977Z,16.10
2018-05-09T04:10:42.609Z,16.10
2018-05-09T04:13:20.899Z,16.10
2018-05-09T04:15:49.656Z,16.10
2018-05-09T04:18:19.815Z,16.10
2018-05-09T04:20:49.055Z,16.00
2018-05-09T04:23:22.559Z,16.10
2018-05-09T04:25:51.273Z,16.10
2018-05-09T04:28:24.334Z,16.00
2018-05-09T04:30:53.620Z,16.00
2018-05-09T04:33:29.509Z,16.10
2018-05-09T04:35:58.255Z,16.10
2018-05-09T04:38:28.553Z,16.10
2018-05-09T04:40:58.091Z,16.10
2018-05-09T04:43:31.050Z,16.10
2018-05-09T04:46:00.199Z,16.10
2018-05-09T04:48:36.325Z,16.10
2018-05-09T04:51:05.098Z,16.10
2018-05-09T04:53:35.926Z,16.30
2018-05-09T04:56:05.696Z,16.30
2018-05-09T04:58:38.040Z,16.30
2018-05-09T05:01:06.875Z,16.30
2018-05-09T05:03:42.989Z,16.40
2018-05-09T05:06:12.312Z,16.40
2018-05-09T05:08:42.714Z,16.50
2018-05-09T05:11:12.570Z,16.60
2018-05-09T05:13:46.356Z,16.60
2018-05-09T05:16:15.123Z,16.60
2018-05-09T05:18:47.904Z,16.70
2018-05-09T05:21:16.993Z,16.70
2018-05-09T05:23:53.294Z,16.80
2018-05-09T05:26:22.886Z,16.90
2018-05-09T05:28:53.674Z,17.00
2018-05-09T05:31:22.585Z,17.00
2018-05-09T05:33:59.436Z,17.10
2018-05-09T05:36:28.363Z,17.10
2018-05-09T05:38:58.918Z,17.10
2018-05-09T05:41:27.853Z,17.20
2018-05-09T05:44:04.945Z,17.30
2018-05-09T05:46:34.552Z,17.30
2018-05-09T05:49:03.868Z,17.30
2018-05-09T05:51:32.959Z,17.40
2018-05-09T05:54:09.849Z,17.40
2018-05-09T05:56:38.739Z,17.50
2018-05-09T05:59:09.270Z,17.50
2018-05-09T06:01:38.104Z,17.60
2018-05-09T06:04:15.294Z,17.70
2018-05-09T06:06:44.341Z,17.60
2018-05-09T06:09:16.649Z,17.70
2018-05-09T06:11:45.482Z,17.80
2018-05-09T06:14:20.782Z,17.90
2018-05-09T06:16:52.504Z,17.90
2018-05-09T06:19:22.243Z,17.90
2018-05-09T06:21:51.818Z,17.90
2018-05-09T06:24:21.880Z,17.90
2018-05-09T06:26:51.274Z,18.00
2018-05-09T06:29:24.126Z,18.00
2018-05-09T06:31:52.942Z,18.10
2018-05-09T06:34:27.076Z,18.10
2018-05-09T06:36:55.981Z,18.10
2018-05-09T06:39:28.715Z,18.20
2018-05-09T06:41:58.594Z,18.40
2018-05-09T06:44:32.064Z,18.40
2018-05-09T06:47:01.566Z,18.40
2018-05-09T06:49:34.759Z,18.50
2018-05-09T06:52:03.547Z,18.40
2018-05-09T06:54:36.410Z,18.50
2018-05-09T06:57:05.303Z,18.60
2018-05-09T06:59:38.786Z,18.70
2018-05-09T07:02:07.874Z,18.70
2018-05-09T07:04:40.482Z,18.70
2018-05-09T07:07:10.119Z,18.90
2018-05-09T07:09:47.013Z,18.80
2018-05-09T07:12:15.983Z,18.90
2018-05-09T07:14:53.474Z,18.90
2018-05-09T07:17:22.678Z,19.00
2018-05-09T07:19:51.649Z,19.10
2018-05-09T07:22:20.748Z,19.10
2018-05-09T07:24:57.031Z,19.10
2018-05-09T07:27:26.075Z,19.20
2018-05-09T07:29:56.040Z,19.30
2018-05-09T07:32:25.955Z,19.40
2018-05-09T07:34:55.514Z,19.40
2018-05-09T07:37:25.111Z,19.50
2018-05-09T07:40:01.280Z,19.40
2018-05-09T07:42:30.138Z,19.50
2018-05-09T07:45:02.539Z,19.60
2018-05-09T07:47:31.783Z,19.70
2018-05-09T07:50:08.436Z,19.80
2018-05-09T07:52:37.426Z,19.70
2018-05-09T07:55:07.507Z,19.80
2018-05-09T07:57:36.298Z,19.90
2018-05-09T08:00:08.705Z,20.00
2018-05-09T08:02:38.735Z,20.10
2018-05-09T08:05:15.737Z,20.10
2018-05-09T08:07:45.494Z,20.30
2018-05-09T08:10:16.138Z,20.30
2018-05-09T08:12:44.994Z,20.40
2018-05-09T08:15:18.014Z,20.50
2018-05-09T08:17:46.868Z,20.50
2018-05-09T08:20:19.433Z,20.60
2018-05-09T08:22:48.597Z,20.70
2018-05-09T08:25:24.831Z,20.80
2018-05-09T08:27:54.755Z,21.00
2018-05-09T08:30:24.306Z,20.90
2018-05-09T08:32:53.191Z,21.00
2018-05-09T08:35:25.707Z,21.20
2018-05-09T08:37:55.366Z,21.50
2018-05-09T08:40:27.824Z,21.40
2018-05-09T08:42:56.931Z,21.60
2018-05-09T08:45:33.378Z,21.70
2018-05-09T08:48:02.308Z,21.90
2018-05-09T08:50:34.257Z,22.00
2018-05-09T08:53:03.187Z,22.10
2018-05-09T08:55:35.754Z,22.50
2018-05-09T08:58:04.953Z,22.50
2018-05-09T09:00:37.515Z,22.80
2018-05-09T09:03:06.456Z,23.20
2018-05-09T09:05:40.664Z,23.40
2018-05-09T09:08:09.549Z,23.60
2018-05-09T09:10:42.354Z,23.80
2018-05-09T09:13:11.510Z,24.10
2018-05-09T09:15:48.345Z,24.80
2018-05-09T09:18:17.933Z,24.70
2018-05-09T09:20:48.065Z,25.20
2018-05-09T09:23:17.189Z,25.60
2018-05-09T09:25:55.113Z,26.00
2018-05-09T09:28:25.993Z,26.80
2018-05-09T09:31:00.577Z,26.80
2018-05-09T09:33:30.308Z,27.10
2018-05-09T09:35:59.483Z,27.40
2018-05-09T09:38:29.428Z,27.70
2018-05-09T09:41:00.064Z,28.00
2018-05-09T09:43:28.887Z,28.20
2018-05-09T09:46:05.641Z,28.20
2018-05-09T09:48:34.429Z,28.30
2018-05-09T09:51:03.889Z,28.50
2018-05-09T09:53:32.677Z,28.60
2018-05-09T09:56:05.821Z,28.80
2018-05-09T09:58:34.655Z,29.00
2018-05-09T10:01:11.227Z,29.10
2018-05-09T10:03:40.344Z,29.40
2018-05-09T10:06:12.870Z,29.50
2018-05-09T10:08:42.525Z,29.80
2018-05-09T10:11:15.410Z,29.80
2018-05-09T10:13:44.284Z,29.90
2018-05-09T10:16:16.979Z,30.00
2018-05-09T10:18:45.798Z,30.10
2018-05-09T10:21:22.006Z,30.00
2018-05-09T10:23:51.100Z,29.90
2018-05-09T10:26:21.961Z,29.90
2018-05-09T10:28:50.952Z,30.10
2018-05-09T10:31:23.600Z,30.30
2018-05-09T10:33:52.398Z,30.30
2018-05-09T10:36:28.844Z,30.40
2018-05-09T10:38:58.765Z,30.50
2018-05-09T10:41:28.449Z,30.60
2018-05-09T10:43:57.329Z,30.60
2018-05-09T10:46:35.583Z,30.50
2018-05-09T10:49:04.439Z,30.50
2018-05-09T10:51:33.310Z,30.50
2018-05-09T10:54:03.459Z,30.50
2018-05-09T10:56:37.185Z,30.60
2018-05-09T10:59:06.010Z,30.60
2018-05-09T11:01:36.598Z,30.60
2018-05-09T11:04:05.417Z,30.70
2018-05-09T11:06:41.464Z,30.80
2018-05-09T11:09:10.677Z,31.00
2018-05-09T11:11:41.219Z,31.10
2018-05-09T11:14:10.119Z,31.00
2018-05-09T11:16:43.854Z,31.00
2018-05-09T11:19:13.460Z,31.30
2018-05-09T11:21:46.487Z,31.50
2018-05-09T11:24:15.690Z,31.50
2018-05-09T11:26:52.094Z,31.60
2018-05-09T11:29:20.975Z,31.70
2018-05-09T11:31:51.490Z,31.70
2018-05-09T11:34:20.324Z,31.60
2018-05-09T11:36:53.422Z,31.70
2018-05-09T11:39:23.789Z,31.70
2018-05-09T11:41:56.099Z,31.80
2018-05-09T11:44:25.284Z,31.80
2018-05-09T11:46:59.796Z,31.90
2018-05-09T11:49:28.699Z,31.90
2018-05-09T11:52:02.196Z,32.00
2018-05-09T11:54:32.345Z,32.00
2018-05-09T11:57:04.528Z,32.00
2018-05-09T11:59:33.408Z,31.90
2018-05-09T12:02:07.585Z,31.80
2018-05-09T12:04:37.381Z,32.00
2018-05-09T12:07:10.558Z,31.80
2018-05-09T12:09:39.741Z,31.70
2018-05-09T12:12:16.363Z,31.90
2018-05-09T12:14:45.393Z,31.80
2018-05-09T12:17:15.356Z,31.80
2018-05-09T12:19:44.182Z,31.80
2018-05-09T12:22:20.331Z,31.50
2018-05-09T12:24:49.494Z,31.40
2018-05-09T12:27:19.923Z,31.30
2018-05-09T12:29:48.771Z,31.30
2018-05-09T12:32:22.299Z,31.40
2018-05-09T12:34:51.161Z,31.60
2018-05-09T12:37:23.757Z,31.50
2018-05-09T12:39:52.918Z,31.50
2018-05-09T12:42:29.261Z,31.60
2018-05-09T12:44:58.942Z,31.60
2018-05-09T12:47:31.094Z,31.70
2018-05-09T12:49:59.978Z,31.30
2018-05-09T12:52:31.834Z,31.10
2018-05-09T12:55:00.726Z,31.00
2018-05-09T12:57:37.161Z,30.90
2018-05-09T13:00:06.036Z,31.00
2018-05-09T13:02:36.111Z,30.70
2018-05-09T13:05:04.984Z,30.70
2018-05-09T13:07:41.867Z,30.40
2018-05-09T13:10:11.519Z,30.60
2018-05-09T13:12:45.029Z,30.50
2018-05-09T13:15:14.681Z,30.50
2018-05-09T13:17:43.501Z,30.70
2018-05-09T13:20:13.098Z,30.40
2018-05-09T13:22:54.320Z,30.40
2018-05-09T13:25:23.168Z,30.50
2018-05-09T13:27:53.827Z,30.50
2018-05-09T13:30:25.509Z,30.40
2018-05-09T13:32:54.374Z,30.40
2018-05-09T13:35:23.238Z,30.50
2018-05-09T13:37:56.453Z,30.60
2018-05-09T13:40:25.934Z,30.50
2018-05-09T13:42:59.000Z,30.30
2018-05-09T13:45:28.322Z,30.30
2018-05-09T13:48:01.716Z,30.40
2018-05-09T13:50:31.351Z,30.20
2018-05-09T13:53:02.915Z,30.20
2018-05-09T13:55:32.025Z,30.20
2018-05-09T13:58:05.715Z,30.00
2018-05-09T14:00:34.961Z,30.00
2018-05-09T14:03:11.616Z,30.10
2018-05-09T14:05:40.770Z,30.20
2018-05-09T14:08:17.299Z,30.30
2018-05-09T14:10:46.359Z,30.30
2018-05-09T14:13:15.884Z,30.40
2018-05-09T14:15:44.964Z,30.30
2018-05-09T14:18:21.316Z,30.10
2018-05-09T14:20:50.687Z,30.00
2018-05-09T14:23:20.256Z,30.00
2018-05-09T14:25:51.382Z,30.00
2018-05-09T14:28:20.346Z,30.20
2018-05-09T14:30:49.249Z,30.50
2018-05-09T14:33:24.115Z,30.50
2018-05-09T14:35:53.932Z,30.20
2018-05-09T14:38:25.032Z,30.10
2018-05-09T14:40:54.315Z,30.10
2018-05-09T14:43:30.422Z,29.90
2018-05-09T14:45:59.315Z,29.60
2018-05-09T14:48:30.522Z,29.20
2018-05-09T14:51:00.625Z,29.20
2018-05-09T14:53:31.759Z,29.20
2018-05-09T14:56:01.951Z,29.30
2018-05-09T14:58:35.201Z,28.90
2018-05-09T15:01:04.329Z,28.90
2018-05-09T15:03:41.632Z,28.60
2018-05-09T15:06:11.011Z,28.50
2018-05-09T15:08:40.733Z,28.10
2018-05-09T15:11:10.372Z,28.00
2018-05-09T15:13:42.422Z,28.00
2018-05-09T15:16:11.557Z,27.90
2018-05-09T15:18:44.299Z,27.80
2018-05-09T15:23:47.138Z,27.50
2018-05-09T15:26:16.144Z,27.40
2018-05-09T15:28:49.721Z,27.30
2018-05-09T15:31:18.597Z,27.10
2018-05-09T15:33:55.337Z,26.90
2018-05-09T15:36:25.017Z,26.80
2018-05-09T15:38:54.883Z,26.80
2018-05-09T15:41:23.678Z,26.80
2018-05-09T15:43:56.639Z,26.70
2018-05-09T15:46:26.309Z,26.70
2018-05-09T15:49:03.245Z,26.70
2018-05-09T15:51:32.126Z,26.70
2018-05-09T15:54:02.283Z,26.60
2018-05-09T15:56:31.190Z,26.70
2018-05-09T15:59:08.991Z,26.70
2018-05-09T16:01:38.156Z,26.70
2018-05-09T16:04:08.557Z,26.60
2018-05-09T16:06:37.425Z,26.50
2018-05-09T16:09:11.566Z,26.30
2018-05-09T16:11:40.478Z,26.30
2018-05-09T16:14:16.658Z,26.30
2018-05-09T16:16:45.703Z,26.30
2018-05-09T16:19:16.335Z,26.20
2018-05-09T16:21:45.191Z,26.20
2018-05-09T16:24:18.659Z,26.10
2018-05-09T16:26:47.465Z,26.00
2018-05-09T16:29:24.567Z,26.00
2018-05-09T16:31:53.625Z,26.00
2018-05-09T16:34:23.219Z,25.90
2018-05-09T16:36:52.089Z,25.90
2018-05-09T16:39:25.881Z,25.90
2018-05-09T16:41:55.505Z,25.80
2018-05-09T16:44:26.511Z,25.80
2018-05-09T16:46:56.327Z,25.80
2018-05-09T16:49:28.732Z,25.70
2018-05-09T16:51:57.574Z,25.70
2018-05-09T16:54:39.595Z,25.70
2018-05-09T16:57:09.256Z,25.60
2018-05-09T16:59:38.554Z,25.60
2018-05-09T17:02:08.273Z,25.50
2018-05-09T17:04:37.857Z,25.40
2018-05-09T17:07:06.836Z,25.40
2018-05-09T17:09:48.145Z,25.40
2018-05-09T17:12:17.224Z,25.40
2018-05-09T17:14:46.132Z,25.30
2018-05-09T17:17:15.141Z,25.30
2018-05-09T17:19:45.362Z,25.20
2018-05-09T17:22:45.904Z,25.20
2018-05-09T17:25:16.812Z,25.20
2018-05-09T17:27:53.135Z,25.10
2018-05-09T17:30:22.272Z,25.10
2018-05-09T17:32:51.247Z,25.10
2018-05-09T17:35:20.096Z,25.10
2018-05-09T17:37:57.457Z,25.10
2018-05-09T17:40:26.360Z,25.10
2018-05-09T17:42:56.884Z,25.00
2018-05-09T17:45:25.804Z,25.00
2018-05-09T17:48:02.501Z,25.00
2018-05-09T17:50:31.659Z,25.00
2018-05-09T17:53:02.899Z,24.90
2018-05-09T17:55:32.491Z,24.90
2018-05-09T17:58:08.588Z,24.90
2018-05-09T18:00:37.612Z,24.90
2018-05-09T18:03:09.547Z,24.90
2018-05-09T18:05:38.480Z,24.80
2018-05-09T18:08:10.966Z,24.80
2018-05-09T18:10:39.858Z,24.70
2018-05-09T18:13:16.857Z,24.70
2018-05-09T18:15:46.529Z,24.60
2018-05-09T18:18:16.607Z,24.60
2018-05-09T18:20:46.470Z,24.60
2018-05-09T18:23:22.306Z,24.50
2018-05-09T18:25:51.119Z,24.50
2018-05-09T18:28:21.940Z,24.50
2018-05-09T18:30:50.848Z,24.50
2018-05-09T18:33:23.173Z,24.40
2018-05-09T18:35:53.256Z,24.30
2018-05-09T18:40:53.888Z,24.30
2018-05-09T18:43:27.044Z,24.20
2018-05-09T18:45:55.873Z,24.20
2018-05-09T18:48:32.641Z,24.20
2018-05-09T18:51:02.269Z,24.00
2018-05-09T18:53:31.468Z,24.00
2018-05-09T18:56:00.657Z,24.00
2018-05-09T18:58:36.757Z,23.90
2018-05-09T19:01:05.714Z,23.90
2018-05-09T19:03:37.335Z,23.80
2018-05-09T19:06:06.348Z,23.80
2018-05-09T19:08:40.065Z,23.60
2018-05-09T19:11:09.308Z,23.60
2018-05-09T19:13:41.445Z,23.60
2018-05-09T19:16:10.303Z,23.50
2018-05-09T19:18:48.549Z,23.40
2018-05-09T19:21:17.568Z,23.30
2018-05-09T19:23:46.512Z,23.20
2018-05-09T19:26:15.415Z,23.20
2018-05-09T19:28:51.809Z,23.10
2018-05-09T19:31:20.667Z,23.00
2018-05-09T19:33:51.299Z,23.00
2018-05-09T19:36:20.479Z,23.00
2018-05-09T19:38:57.434Z,22.90
2018-05-09T19:43:57.035Z,22.70
2018-05-09T19:46:26.641Z,22.60
2018-05-09T19:48:59.182Z,22.50
2018-05-09T19:51:28.256Z,22.50
2018-05-09T19:54:09.626Z,22.50
2018-05-09T19:56:39.251Z,22.40
2018-05-09T19:59:08.104Z,22.40
2018-05-09T20:01:38.111Z,22.30
2018-05-09T20:04:07.357Z,22.30
2018-05-09T20:06:36.230Z,22.30
2018-05-09T20:09:09.104Z,22.20
2018-05-09T20:11:38.739Z,22.10
2018-05-09T20:14:20.235Z,22.10
2018-05-09T20:16:50.456Z,22.10
2018-05-09T20:19:19.403Z,22.00
2018-05-09T20:21:49.662Z,22.00
2018-05-09T20:24:18.808Z,22.00
2018-05-09T20:26:47.642Z,22.00
2018-05-09T20:29:20.539Z,22.00
2018-05-09T20:32:58.959Z,21.90
2018-05-09T20:35:28.601Z,21.90
2018-05-09T20:37:57.849Z,21.80
2018-05-09T20:40:26.721Z,21.80
2018-05-09T20:42:56.372Z,21.70
2018-05-09T20:45:26.811Z,21.70
2018-05-09T20:47:55.654Z,21.70
2018-05-09T20:50:31.928Z,21.60
2018-05-09T20:53:01.088Z,21.60
2018-05-09T20:55:30.574Z,21.60
2018-05-09T20:57:59.546Z,21.60
2018-05-09T21:00:57.788Z,21.40
2018-05-09T21:03:35.246Z,21.40
2018-05-09T21:06:05.894Z,21.40
2018-05-09T21:08:36.564Z,21.40
2018-05-09T21:11:07.730Z,21.40
2018-05-09T21:13:39.494Z,21.30
2018-05-09T21:16:08.301Z,21.30
2018-05-09T21:18:41.830Z,21.20
2018-05-09T21:21:11.420Z,21.20
2018-05-09T21:23:47.988Z,21.20
2018-05-09T21:26:19.950Z,21.10
2018-05-09T21:28:49.920Z,21.10
2018-05-09T21:31:18.976Z,21.10
2018-05-09T21:33:51.611Z,21.10
2018-05-09T21:36:21.626Z,20.90
2018-05-09T21:38:55.015Z,20.90
2018-05-09T21:41:25.099Z,20.90
2018-05-09T21:44:01.575Z,20.90
2018-05-09T21:46:30.789Z,20.80
2018-05-09T21:49:01.745Z,20.80
2018-05-09T21:51:30.976Z,20.70
2018-05-09T21:54:04.004Z,20.60
2018-05-09T21:56:34.193Z,20.60
2018-05-09T21:59:07.608Z,20.50
2018-05-09T22:01:37.169Z,20.50
2018-05-09T22:04:19.594Z,20.50
2018-05-09T22:06:51.807Z,20.50
2018-05-09T22:09:24.677Z,20.50
2018-05-09T22:11:53.593Z,20.40
2018-05-09T22:14:22.909Z,20.40
2018-05-09T22:16:55.173Z,20.40
2018-05-09T22:19:28.567Z,20.30
2018-05-09T22:21:58.090Z,20.30
2018-05-09T22:24:29.763Z,20.20
2018-05-09T22:27:00.756Z,20.20
2018-05-09T22:29:31.350Z,20.10
2018-05-09T22:32:01.209Z,20.10
2018-05-09T22:34:30.876Z,19.90
2018-05-09T22:37:01.229Z,19.90
2018-05-09T22:39:30.136Z,19.90
2018-05-09T22:41:58.952Z,19.90
2018-05-09T22:44:28.664Z,19.80
2018-05-09T22:46:57.437Z,19.80
2018-05-09T22:49:30.154Z,19.80
2018-05-09T22:52:00.082Z,19.70
2018-05-09T22:54:32.697Z,19.70
2018-05-09T22:57:02.340Z,19.60
2018-05-09T22:59:38.706Z,19.60
2018-05-09T23:02:07.568Z,19.70
2018-05-09T23:04:38.394Z,19.50
2018-05-09T23:07:08.137Z,19.50
2018-05-09T23:09:39.081Z,19.40
2018-05-09T23:12:08.163Z,19.40
2018-05-09T23:14:40.430Z,19.40
2018-05-09T23:17:10.709Z,19.30
2018-05-09T23:19:47.345Z,19.20
2018-05-09T23:22:16.286Z,19.30
2018-05-09T23:24:46.757Z,19.20
2018-05-09T23:27:16.837Z,19.10
2018-05-09T23:29:49.366Z,19.10
2018-05-09T23:32:18.239Z,19.10
2018-05-09T23:34:51.840Z,19.00
2018-05-09T23:37:20.749Z,19.00
2018-05-09T23:39:57.312Z,19.00
2018-05-09T23:42:26.389Z,19.00
2018-05-09T23:44:58.470Z,18.90
2018-05-09T23:47:27.284Z,18.80
2018-05-09T23:50:02.025Z,18.80
2018-05-09T23:52:32.464Z,18.70
2018-05-09T23:55:02.488Z,18.80
2018-05-09T23:57:31.624Z,18.70
